Time;durP1;ratioP1;P1;durP2;ratioP2;P2;SDS_P1;SDS_P2;PMS_P1;PMS_P2;Temp;Humidity;BMP_temperature;BMP_pressure;BME280_temperature;BME280_humidity;BME280_pressure;Samples;Min_cycle;Max_cycle;Signal;HPM_P1;HPM_P2
2021/07/24 00:01:49;;;;;;;5.32;4.82;;;;;;;21.93;58.98;100665.75;5009632;28;20034;-55
2021/07/24 00:04:14;;;;;;;4.75;4.35;;;;;;;21.91;59.09;100660.47;5007778;28;20022;-56
2021/07/24 00:06:40;;;;;;;4.97;4.47;;;;;;;21.91;59.15;100660.47;5011716;28;20048;-55
2021/07/24 00:09:05;;;;;;;4.88;4.45;;;;;;;21.90;59.09;100658.75;5009251;28;20025;-55
2021/07/24 00:11:32;;;;;;;4.78;4.38;;;;;;;21.89;59.21;100650.78;5014677;28;20018;-55
2021/07/24 00:13:57;;;;;;;5.07;4.57;;;;;;;21.91;58.94;100648.88;5014115;28;20014;-54
2021/07/24 00:16:23;;;;;;;4.57;4.18;;;;;;;21.91;59.08;100639.00;5013550;28;20030;-54
2021/07/24 00:18:48;;;;;;;4.90;4.40;;;;;;;21.89;59.01;100635.53;5010849;28;20061;-55
2021/07/24 00:21:13;;;;;;;4.72;4.00;;;;;;;21.88;59.00;100631.09;5013013;28;20045;-54
2021/07/24 00:23:38;;;;;;;4.22;3.83;;;;;;;21.88;59.11;100628.41;5011171;28;20037;-55
2021/07/24 00:28:38;;;;;;;3.83;3.45;;;;;;;21.87;58.95;100626.69;5024024;28;20056;-56
2021/07/24 00:31:03;;;;;;;4.57;4.18;;;;;;;21.87;58.80;100634.75;5003286;28;20030;-56
2021/07/24 00:33:29;;;;;;;5.25;4.45;;;;;;;21.86;58.93;100627.66;5027433;28;20022;-55
2021/07/24 00:35:58;;;;;;;4.15;3.78;;;;;;;21.86;58.74;100621.41;5023297;28;20022;-55
2021/07/24 00:38:26;;;;;;;4.95;4.45;;;;;;;21.85;58.82;100620.56;5029413;28;20029;-55
2021/07/24 00:40:57;;;;;;;4.32;3.95;;;;;;;21.85;58.79;100625.94;5031203;28;20025;-55
2021/07/24 00:43:30;;;;;;;;;;;;;;;21.84;59.01;100616.13;5015637;28;20466;-56
2021/07/24 00:45:57;;;;;;;4.80;4.40;;;;;;;21.83;58.76;100622.47;5020325;28;21341;-54
2021/07/24 00:48:23;;;;;;;4.50;4.10;;;;;;;21.83;58.82;100619.78;5032919;28;20418;-54
2021/07/24 00:50:51;;;;;;;5.57;4.05;;;;;;;21.84;58.74;100620.66;5034010;28;20033;-54
2021/07/24 00:53:33;;;;;;;5.70;4.28;;;;;;;21.84;58.69;100612.59;5033823;28;20032;-54
2021/07/24 00:56:00;;;;;;;4.53;4.13;;;;;;;21.82;58.72;100612.69;5038143;28;20025;-54
2021/07/24 00:58:35;;;;;;;6.28;4.40;;;;;;;21.82;59.09;100617.19;5036033;28;20498;-57
2021/07/24 01:01:00;;;;;;;4.85;4.40;;;;;;;21.81;58.47;100619.03;5044278;28;20099;-55
2021/07/24 01:03:26;;;;;;;6.25;4.25;;;;;;;21.79;58.89;100618.22;5037843;28;20021;-53
2021/07/24 01:05:53;;;;;;;4.40;4.00;;;;;;;21.79;58.50;100616.41;5025282;28;20029;-56
2021/07/24 01:08:23;;;;;;;4.97;4.45;;;;;;;21.77;58.69;100612.06;5027112;28;20557;-57
2021/07/24 01:10:53;;;;;;;4.50;4.10;;;;;;;21.79;58.80;100618.22;5023669;28;20037;-57
2021/07/24 01:13:19;;;;;;;7.47;4.10;;;;;;;21.77;58.79;100604.00;5046064;28;20024;-55
2021/07/24 01:15:46;;;;;;;4.40;3.97;;;;;;;21.76;58.57;100610.34;5018001;28;20160;-56
2021/07/24 01:18:11;;;;;;;4.70;4.30;;;;;;;21.78;58.55;100603.09;5015914;28;20029;-56
2021/07/24 01:20:37;;;;;;;4.88;4.47;;;;;;;21.74;58.75;100598.84;5014916;28;20029;-56
2021/07/24 01:23:03;;;;;;;4.68;4.28;;;;;;;21.74;58.65;100588.13;5005756;28;20033;-56
2021/07/24 01:25:28;;;;;;;4.93;4.10;;;;;;;21.72;58.59;100585.47;5017462;28;20036;-56
2021/07/24 01:27:54;;;;;;;4.80;4.30;;;;;;;21.72;58.71;100589.97;5033118;28;20648;-57
2021/07/24 01:30:19;;;;;;;5.22;4.72;;;;;;;21.73;58.39;100583.66;5037691;28;20393;-56
2021/07/24 01:32:44;;;;;;;4.68;4.28;;;;;;;21.74;58.48;100594.31;5023552;28;20058;-56
2021/07/24 01:35:10;;;;;;;4.60;4.20;;;;;;;21.72;58.65;100587.28;5042985;28;20145;-56
2021/07/24 01:37:35;;;;;;;4.68;4.28;;;;;;;21.71;58.49;100593.63;5033622;28;20014;-56
2021/07/24 01:40:01;;;;;;;4.30;3.90;;;;;;;21.70;58.42;100587.38;5036637;28;20040;-56
2021/07/24 01:42:26;;;;;;;5.25;4.40;;;;;;;21.70;58.62;100592.75;5037507;28;20096;-56
2021/07/24 01:44:51;;;;;;;4.85;4.35;;;;;;;21.70;58.52;100581.16;5042343;28;20024;-56
2021/07/24 01:47:16;;;;;;;4.75;4.32;;;;;;;21.69;58.42;100590.16;5036122;28;20486;-56
2021/07/24 01:52:46;;;;;;;4.82;4.35;;;;;;;21.67;58.48;100583.06;5039381;28;20064;-56
2021/07/24 01:55:13;;;;;;;4.85;4.32;;;;;;;21.66;58.49;100581.34;5022834;28;20104;-56
2021/07/24 01:57:42;;;;;;;5.15;4.65;;;;;;;21.66;58.36;100569.72;5037310;28;20021;-56
2021/07/24 02:00:09;;;;;;;5.20;4.80;;;;;;;21.65;58.36;100568.84;5021865;28;20036;-56
2021/07/24 02:02:35;;;;;;;4.85;4.35;;;;;;;21.65;58.53;100568.00;5020792;28;20056;-57
2021/07/24 02:05:02;;;;;;;4.47;4.07;;;;;;;21.64;58.60;100567.13;5041831;28;20049;-56
2021/07/24 02:07:35;;;;;;;5.25;4.40;;;;;;;21.63;58.52;100562.72;5031343;28;20037;-56
2021/07/24 02:10:01;;;;;;;5.15;4.65;;;;;;;21.63;58.47;100556.47;5002984;28;20441;-57
2021/07/24 02:12:30;;;;;;;5.78;5.13;;;;;;;21.62;58.63;100546.72;5020511;28;20020;-56
2021/07/24 02:14:56;;;;;;;5.38;4.63;;;;;;;21.61;58.38;100545.84;5038951;28;20029;-57
2021/07/24 02:17:22;;;;;;;5.93;5.32;;;;;;;21.60;58.37;100537.88;5018643;28;20029;-56
2021/07/24 02:19:48;;;;;;;5.28;4.78;;;;;;;21.60;58.46;100533.38;5040912;28;20032;-56
2021/07/24 02:22:13;;;;;;;4.97;4.38;;;;;;;21.59;58.43;100539.72;5007123;28;20021;-57
2021/07/24 02:24:38;;;;;;;5.03;4.57;;;;;;;21.59;58.50;100537.03;5040261;28;20025;-57
2021/07/24 02:27:08;;;;;;;7.13;4.93;;;;;;;21.58;58.48;100540.66;5035432;28;20036;-56
2021/07/24 02:30:07;;;;;;;6.97;5.22;;;;;;;21.56;58.62;100526.47;5021597;28;20391;-56
2021/07/24 02:32:33;;;;;;;4.97;4.43;;;;;;;21.57;58.50;100533.56;5034227;28;20030;-56
2021/07/24 02:34:58;;;;;;;5.55;5.05;;;;;;;21.56;58.39;100539.88;5035709;28;20028;-56
2021/07/24 02:37:23;;;;;;;5.40;4.90;;;;;;;21.56;58.24;100526.47;5036230;28;20026;-57
2021/07/24 02:39:49;;;;;;;5.15;4.65;;;;;;;21.55;58.41;100519.38;5036462;28;20032;-56
2021/07/24 02:42:15;;;;;;;4.68;4.22;;;;;;;21.53;58.38;100527.50;5032369;28;20022;-56
2021/07/24 02:44:40;;;;;;;4.97;4.50;;;;;;;21.52;58.16;100525.78;5038698;28;20053;-56
2021/07/24 02:47:06;;;;;;;5.47;4.97;;;;;;;21.52;58.37;100516.88;5037800;28;20582;-56
2021/07/24 02:49:31;;;;;;;5.68;5.18;;;;;;;21.51;58.46;100516.00;5033688;28;20021;-56
2021/07/24 02:51:56;;;;;;;5.90;5.03;;;;;;;21.51;58.30;100501.72;5038048;28;20029;-57
2021/07/24 02:54:22;;;;;;;5.63;5.07;;;;;;;21.50;58.21;100511.59;5039831;28;20123;-57
2021/07/24 02:56:47;;;;;;;5.18;4.72;;;;;;;21.50;58.30;100499.97;5032896;28;20452;-56
2021/07/24 02:59:15;;;;;;;5.40;4.90;;;;;;;21.50;58.26;100502.66;5017903;28;20068;-56
2021/07/24 03:01:44;;;;;;;5.45;4.95;;;;;;;21.48;58.26;100496.53;5014684;28;20136;-54
2021/07/24 03:04:10;;;;;;;7.15;4.85;;;;;;;21.48;58.40;100502.75;5037716;28;20044;-54
2021/07/24 03:06:38;;;;;;;5.63;5.13;;;;;;;21.48;58.31;100496.53;5036074;28;20021;-54
2021/07/24 03:09:06;;;;;;;5.63;4.78;;;;;;;21.48;58.20;100507.28;5041785;28;20060;-54
2021/07/24 03:11:31;;;;;;;5.68;5.03;;;;;;;21.45;58.39;100508.31;5020148;28;20037;-54
2021/07/24 03:13:57;;;;;;;5.05;4.55;;;;;;;21.44;58.25;100505.72;5034483;28;20028;-54
2021/07/24 03:16:22;;;;;;;5.07;4.63;;;;;;;21.44;58.23;100527.19;5031621;28;20026;-54
2021/07/24 03:18:51;;;;;;;5.47;4.93;;;;;;;21.42;58.37;100513.84;5041531;28;20026;-54
2021/07/24 03:21:20;;;;;;;9.88;4.70;;;;;;;21.41;58.38;100518.34;5035897;28;20032;-54
2021/07/24 03:23:48;;;;;;;5.35;4.50;;;;;;;21.40;58.38;100521.97;5033746;28;20029;-54
2021/07/24 03:26:13;;;;;;;9.75;5.50;;;;;;;21.40;58.38;100527.34;5033700;28;20553;-54
2021/07/24 03:28:38;;;;;;;5.50;5.00;;;;;;;21.39;58.40;100525.63;5033155;28;20017;-54
2021/07/24 03:31:07;;;;;;;6.20;5.57;;;;;;;21.38;58.54;100529.25;5039176;28;20052;-54
2021/07/24 03:33:32;;;;;;;5.68;5.18;;;;;;;21.37;58.31;100530.19;5031659;28;20060;-54
2021/07/24 03:36:00;;;;;;;5.85;4.57;;;;;;;21.37;58.37;100527.53;5013637;28;20056;-54
2021/07/24 03:38:27;;;;;;;5.80;5.20;;;;;;;21.35;58.42;100529.44;5034520;28;20463;-54
2021/07/24 03:40:53;;;;;;;5.63;5.10;;;;;;;21.35;58.45;100536.59;5035331;28;20041;-54
2021/07/24 03:43:18;;;;;;;6.30;5.70;;;;;;;21.34;58.33;100538.41;5034072;28;20029;-54
2021/07/24 03:45:43;;;;;;;7.55;5.72;;;;;;;21.34;58.38;100537.56;5034394;28;20033;-54
2021/07/24 03:48:08;;;;;;;5.32;4.65;;;;;;;21.33;58.41;100542.06;5033740;28;20160;-54
2021/07/24 03:50:34;;;;;;;6.22;5.63;;;;;;;21.33;58.29;100536.69;5031887;28;20098;-54
2021/07/24 03:53:00;;;;;;;6.63;5.20;;;;;;;21.33;58.51;100547.41;5030265;28;20021;-54
2021/07/24 03:55:26;;;;;;;5.53;5.03;;;;;;;21.32;58.40;100539.47;5016056;28;20674;-54
2021/07/24 03:57:52;;;;;;;5.28;4.72;;;;;;;21.30;58.44;100536.88;5032690;28;20021;-54
2021/07/24 04:00:18;;;;;;;5.57;5.03;;;;;;;21.29;58.38;100540.50;5015432;28;20040;-54
2021/07/24 04:02:44;;;;;;;6.35;5.10;;;;;;;21.28;58.14;100533.41;5031786;28;20037;-54
2021/07/24 04:05:10;;;;;;;5.68;4.80;;;;;;;21.28;58.47;100538.78;5031362;28;20574;-54
2021/07/24 04:07:37;;;;;;;5.97;4.85;;;;;;;21.27;58.34;100542.41;5025858;28;20029;-54
2021/07/24 04:10:04;;;;;;;5.35;4.80;;;;;;;21.26;58.31;100538.88;5036982;28;20031;-53
2021/07/24 04:12:32;;;;;;;6.00;5.50;;;;;;;21.28;58.30;100546.84;5016231;28;20025;-54
2021/07/24 04:15:00;;;;;;;6.50;5.57;;;;;;;21.25;58.26;100538.94;5015161;28;20433;-54
2021/07/24 04:17:26;;;;;;;6.15;5.10;;;;;;;21.26;58.33;100548.72;5029815;28;20372;-53
2021/07/24 04:19:54;;;;;;;5.65;5.00;;;;;;;21.25;58.29;100536.28;5034098;28;20116;-54
2021/07/24 04:22:19;;;;;;;5.85;5.13;;;;;;;21.24;58.26;100547.97;5000483;28;20047;-56
2021/07/24 04:24:44;;;;;;;5.30;4.80;;;;;;;21.22;58.21;100550.72;5033993;28;20467;-55
2021/07/24 04:27:10;;;;;;;5.15;4.65;;;;;;;21.22;58.26;100560.56;5034958;28;20029;-56
2021/07/24 04:29:35;;;;;;;6.00;5.40;;;;;;;21.21;58.23;100561.53;5031862;28;20021;-56
2021/07/24 04:32:02;;;;;;;6.18;5.53;;;;;;;21.21;58.36;100569.56;5038233;28;20025;-56
2021/07/24 04:34:29;;;;;;;5.75;5.20;;;;;;;21.20;58.43;100562.50;5020180;28;20498;-56
2021/07/24 04:36:54;;;;;;;5.78;5.28;;;;;;;21.20;58.23;100557.13;5038259;28;20498;-56
2021/07/24 04:39:19;;;;;;;6.97;6.28;;;;;;;21.18;58.34;100559.88;5019023;28;20034;-56
2021/07/24 04:41:45;;;;;;;5.60;4.60;;;;;;;21.18;58.33;100559.00;5035509;28;20032;-56
2021/07/24 04:44:11;;;;;;;5.45;4.95;;;;;;;21.17;58.42;100557.28;5032366;28;20083;-55
2021/07/24 04:46:40;;;;;;;6.00;5.40;;;;;;;21.17;58.56;100557.28;5037105;28;20519;-56
2021/07/24 04:49:11;;;;;;;6.80;5.72;;;;;;;21.15;58.35;100562.75;5038508;28;20032;-54
2021/07/24 04:51:39;;;;;;;5.75;5.15;;;;;;;21.14;58.48;100563.69;5041616;28;20052;-54
2021/07/24 04:54:05;;;;;;;5.85;5.35;;;;;;;21.14;58.48;100571.75;5038351;28;20047;-54
2021/07/24 04:56:31;;;;;;;5.97;5.38;;;;;;;21.14;58.42;100574.41;5017207;28;20029;-54
2021/07/24 04:59:01;;;;;;;6.18;4.93;;;;;;;21.13;58.39;100572.66;5040513;28;20498;-54
2021/07/24 05:01:26;;;;;;;5.13;4.63;;;;;;;21.13;58.51;100559.25;5020823;28;20372;-54
2021/07/24 05:03:51;;;;;;;6.10;5.50;;;;;;;21.12;58.55;100555.72;5039687;28;20592;-54
2021/07/24 05:06:20;;;;;;;5.88;4.82;;;;;;;21.11;58.49;100553.13;5039536;28;20025;-55
2021/07/24 05:08:45;;;;;;;6.15;5.43;;;;;;;21.10;58.57;100546.91;5045681;28;20024;-55
2021/07/24 05:11:33;;;;;;;5.68;5.00;;;;;;;21.09;58.54;100545.19;5037832;28;20025;-54
2021/07/24 05:13:59;;;;;;;6.82;5.40;;;;;;;21.09;58.58;100561.25;5041774;28;20021;-55
2021/07/24 05:16:24;;;;;;;5.15;4.65;;;;;;;21.08;58.65;100548.81;5037832;28;20388;-55
2021/07/24 05:18:52;;;;;;;6.10;5.50;;;;;;;21.07;58.56;100543.53;5042555;28;20022;-54
2021/07/24 05:21:21;;;;;;;5.00;4.40;;;;;;;21.05;58.68;100551.66;5039812;28;20509;-54
2021/07/24 05:23:55;;;;;;;5.43;4.88;;;;;;;21.04;58.85;100547.22;5036981;28;20074;-55
2021/07/24 05:26:20;;;;;;;5.70;5.10;;;;;;;21.04;58.74;100552.59;5043896;28;20035;-55
2021/07/24 05:28:48;;;;;;;6.53;5.90;;;;;;;21.05;58.63;100556.16;5044971;28;20390;-55
2021/07/24 05:31:21;;;;;;;5.97;4.45;;;;;;;21.03;58.79;100540.13;5036515;28;20686;-55
2021/07/24 05:33:47;;;;;;;6.50;5.50;;;;;;;21.04;58.69;100544.53;5038258;28;20037;-55
2021/07/24 05:36:12;;;;;;;5.85;5.25;;;;;;;21.02;58.92;100541.09;5037412;28;20044;-54
2021/07/24 05:38:37;;;;;;;5.53;5.03;;;;;;;21.02;58.86;100539.31;5041650;28;20033;-55
2021/07/24 05:41:06;;;;;;;5.80;5.30;;;;;;;21.02;58.93;100538.41;5040057;28;20026;-55
2021/07/24 05:43:31;;;;;;;6.10;5.50;;;;;;;21.02;58.74;100539.31;5034539;28;20495;-55
2021/07/24 05:46:01;;;;;;;5.90;5.30;;;;;;;21.02;58.87;100536.63;5038136;28;20033;-55
2021/07/24 05:48:29;;;;;;;6.97;5.13;;;;;;;21.01;58.99;100532.19;5042372;28;20013;-55
2021/07/24 05:50:55;;;;;;;6.20;5.25;;;;;;;21.01;58.90;100531.34;5039587;28;20033;-55
2021/07/24 05:53:20;;;;;;;5.03;4.63;;;;;;;20.99;59.06;100519.81;5039278;28;20029;-55
2021/07/24 05:55:49;;;;;;;6.85;5.63;;;;;;;21.00;59.10;100529.59;5017150;28;20083;-55
2021/07/24 05:58:14;;;;;;;5.63;5.13;;;;;;;20.98;59.05;100520.78;5033814;28;20055;-55
2021/07/24 06:00:39;;;;;;;6.85;5.82;;;;;;;20.97;59.13;100513.69;5031760;28;20017;-56
2021/07/24 06:03:06;;;;;;;5.15;4.60;;;;;;;21.00;59.14;100513.50;5024690;28;20103;-56
2021/07/24 06:08:53;;;;;;;6.55;5.53;;;;;;;20.98;58.96;100500.19;5044837;28;20094;-54
2021/07/24 06:11:18;;;;;;;6.18;5.35;;;;;;;20.99;58.99;100501.94;5036480;28;20025;-53
2021/07/24 06:13:43;;;;;;;7.15;6.55;;;;;;;20.96;59.20;100504.78;5033490;28;20033;-54
2021/07/24 06:16:09;;;;;;;5.85;5.35;;;;;;;20.98;58.99;100499.34;5013833;28;20022;-54
2021/07/24 06:18:35;;;;;;;6.07;5.18;;;;;;;20.95;59.38;100483.41;5015256;28;20671;-54
2021/07/24 06:21:03;;;;;;;6.03;5.53;;;;;;;20.93;59.32;100490.66;5033276;28;20155;-54
2021/07/24 06:23:34;;;;;;;6.22;5.63;;;;;;;20.94;59.30;100489.72;5041101;28;20036;-55
2021/07/24 06:26:02;;;;;;;7.47;6.00;;;;;;;20.93;59.23;100493.34;5052679;28;20075;-53
2021/07/24 06:28:28;;;;;;;7.10;6.40;;;;;;;20.94;59.32;100493.25;5044720;28;20122;-53
2021/07/24 06:30:53;;;;;;;6.82;6.05;;;;;;;20.94;59.27;100482.53;5025480;22;20065;-54
2021/07/24 06:33:18;;;;;;;6.43;5.82;;;;;;;20.93;59.31;100479.94;5017101;28;20034;-54
2021/07/24 06:35:44;;;;;;;7.40;5.75;;;;;;;20.94;59.32;100479.00;5015291;28;20058;-56
2021/07/24 06:38:11;;;;;;;7.88;6.55;;;;;;;20.94;59.20;100482.53;5014861;28;20021;-56
2021/07/24 06:40:36;;;;;;;6.75;6.13;;;;;;;20.91;59.27;100480.06;5014271;28;20482;-55
2021/07/24 06:43:02;;;;;;;7.25;6.10;;;;;;;20.91;59.33;100473.81;5012364;28;20025;-55
2021/07/24 06:45:27;;;;;;;7.03;6.32;;;;;;;20.89;59.42;100468.53;5012414;28;20480;-55
2021/07/24 06:47:57;;;;;;;6.32;5.70;;;;;;;20.88;59.43;100459.63;5014360;28;20088;-55
2021/07/24 06:50:25;;;;;;;6.95;6.25;;;;;;;20.89;59.50;100465.84;5013136;28;20022;-53
2021/07/24 06:52:57;;;;;;;7.38;6.65;;;;;;;20.89;59.48;100458.69;5012949;28;20040;-53
2021/07/24 06:55:26;;;;;;;7.55;6.85;;;;;;;20.89;59.40;100463.19;5011490;28;20471;-53
2021/07/24 06:57:51;;;;;;;7.30;5.78;;;;;;;20.88;59.62;100456.94;5012578;28;20061;-54
2021/07/24 07:00:17;;;;;;;6.63;6.03;;;;;;;20.88;59.58;100456.94;5011692;28;20061;-53
2021/07/24 07:02:45;;;;;;;5.82;5.32;;;;;;;20.88;59.47;100462.31;5011160;28;20030;-53
2021/07/24 07:05:13;;;;;;;7.55;6.65;;;;;;;20.89;59.56;100455.13;5010202;28;20041;-53
2021/07/24 07:07:39;;;;;;;6.57;5.97;;;;;;;20.88;59.43;100456.94;4994076;28;20022;-53
2021/07/24 07:10:07;;;;;;;6.85;6.20;;;;;;;20.88;59.55;100456.06;4994740;28;20037;-53
2021/07/24 07:12:32;;;;;;;7.97;7.22;;;;;;;20.87;59.54;100449.84;5012059;28;20065;-55
2021/07/24 07:15:02;;;;;;;7.80;7.10;;;;;;;20.87;59.57;100452.50;5010424;28;20052;-53
2021/07/24 07:17:27;;;;;;;6.90;6.25;;;;;;;20.88;59.66;100446.22;5011453;28;20109;-53
2021/07/24 07:19:52;;;;;;;6.22;5.65;;;;;;;20.87;59.65;100444.47;5017522;28;20570;-53
2021/07/24 07:22:17;;;;;;;6.70;6.10;;;;;;;20.88;59.54;100446.22;5013633;28;20059;-58
2021/07/24 07:24:43;;;;;;;7.75;6.95;;;;;;;20.88;59.54;100438.19;4976862;28;20042;-53
2021/07/24 07:27:08;;;;;;;7.68;6.95;;;;;;;20.88;59.77;100451.59;5011694;28;20025;-54
2021/07/24 07:29:33;;;;;;;7.93;7.13;;;;;;;20.86;59.79;100442.75;5011561;28;20064;-53
2021/07/24 07:31:59;;;;;;;6.82;6.20;;;;;;;20.88;59.75;100448.03;5014526;28;20037;-54
2021/07/24 07:34:24;;;;;;;6.75;6.10;;;;;;;20.87;59.82;100441.78;5008802;28;20034;-53
2021/07/24 07:36:49;;;;;;;6.95;6.30;;;;;;;20.88;59.92;100445.34;5010290;28;20029;-53
2021/07/24 07:39:15;;;;;;;6.95;6.25;;;;;;;20.87;59.89;100436.44;4977440;28;20026;-53
2021/07/24 07:41:40;;;;;;;6.75;6.15;;;;;;;20.88;59.88;100440.88;4992478;28;20045;-53
2021/07/24 07:44:08;;;;;;;7.07;6.47;;;;;;;20.88;59.94;100445.34;4993082;28;20083;-53
2021/07/24 07:46:34;;;;;;;7.97;7.28;;;;;;;20.88;60.16;100435.50;4992597;28;20037;-53
2021/07/24 07:49:00;;;;;;;7.45;6.75;;;;;;;20.89;60.17;100433.69;5010083;28;20052;-53
2021/07/24 07:51:25;;;;;;;7.10;6.40;;;;;;;20.87;60.03;100439.13;4993965;28;20022;-53
2021/07/24 07:53:50;;;;;;;7.32;6.63;;;;;;;20.88;59.95;100440.88;5011713;28;20065;-53
2021/07/24 07:56:16;;;;;;;7.20;6.50;;;;;;;20.91;59.99;100450.56;5010911;28;20137;-55
2021/07/24 07:58:41;;;;;;;8.70;7.45;;;;;;;20.90;60.07;100448.81;4992639;28;20514;-54
2021/07/24 08:01:15;;;;;;;7.78;6.93;;;;;;;20.90;60.15;100451.50;5010779;28;20034;-53
2021/07/24 08:03:41;;;;;;;8.38;7.47;;;;;;;20.91;60.03;100444.34;5010489;28;20057;-53
2021/07/24 08:06:09;;;;;;;8.25;7.47;;;;;;;20.92;60.29;100446.06;4992387;28;20488;-53
2021/07/24 08:08:35;;;;;;;7.35;6.65;;;;;;;20.91;60.21;100439.84;5011505;28;20061;-53
2021/07/24 08:11:00;;;;;;;8.88;7.97;;;;;;;20.93;60.28;100442.41;5010478;28;20476;-53
2021/07/24 08:13:30;;;;;;;9.77;8.80;;;;;;;20.90;60.35;100435.41;5010483;28;20513;-53
2021/07/24 08:15:55;;;;;;;9.93;8.60;;;;;;;20.91;60.35;100441.66;5010636;28;20030;-53
2021/07/24 08:18:24;;;;;;;10.00;8.98;;;;;;;20.91;60.49;100433.63;4993431;28;20022;-54
2021/07/24 08:21:08;;;;;;;9.88;8.88;;;;;;;20.92;60.34;100435.34;4993918;28;20038;-53
2021/07/24 08:23:33;;;;;;;9.27;8.07;;;;;;;20.93;60.32;100437.94;4993402;28;20048;-55
2021/07/24 08:25:58;;;;;;;10.45;9.20;;;;;;;20.94;60.37;100444.16;4993377;28;20388;-53
2021/07/24 08:28:27;;;;;;;11.55;10.02;;;;;;;20.92;60.50;100430.84;5010230;28;20113;-53
2021/07/24 08:30:52;;;;;;;11.52;10.32;;;;;;;20.94;60.63;100444.16;5010610;28;20033;-53
2021/07/24 08:33:18;;;;;;;11.43;8.75;;;;;;;20.95;60.50;100430.69;5011353;28;20026;-53
2021/07/24 08:35:46;;;;;;;10.80;9.65;;;;;;;20.97;60.43;100438.63;5011067;28;20103;-53
2021/07/24 08:38:11;;;;;;;8.73;7.93;;;;;;;20.97;60.38;100438.63;4977330;28;20372;-56
2021/07/24 08:40:38;;;;;;;9.90;8.50;;;;;;;20.98;60.36;100430.47;4991886;28;20036;-53
2021/07/24 08:43:13;;;;;;;9.50;8.60;;;;;;;21.00;60.21;100433.06;5009252;28;20053;-53
2021/07/24 08:45:38;;;;;;;10.45;9.35;;;;;;;21.00;60.50;100433.06;5003452;28;20048;-54
2021/07/24 08:48:10;;;;;;;10.75;9.70;;;;;;;21.00;60.31;100439.31;4993587;28;20026;-54
2021/07/24 08:50:40;;;;;;;9.73;8.73;;;;;;;21.02;60.27;100431.19;4993986;28;20046;-53
2021/07/24 08:53:07;;;;;;;9.85;8.75;;;;;;;21.02;60.39;100431.19;4993145;28;20026;-55
2021/07/24 08:55:33;;;;;;;9.52;8.55;;;;;;;21.02;60.39;100421.34;5011181;28;20029;-54
2021/07/24 08:58:00;;;;;;;9.60;8.60;;;;;;;21.01;60.39;100429.47;4992974;28;20076;-53
2021/07/24 09:00:27;;;;;;;10.68;9.57;;;;;;;21.04;60.45;100423.06;4991662;28;20030;-54
2021/07/24 09:02:59;;;;;;;11.82;9.70;;;;;;;21.05;60.37;100420.28;4993581;28;20109;-53
2021/07/24 09:05:26;;;;;;;10.20;8.63;;;;;;;21.06;60.40;100416.66;5010505;28;20068;-56
2021/07/24 09:07:51;;;;;;;10.23;9.10;;;;;;;21.07;60.41;100413.00;4992776;28;20026;-53
2021/07/24 09:10:18;;;;;;;10.32;9.32;;;;;;;21.07;60.45;100415.69;4993246;28;20100;-54
2021/07/24 09:12:46;;;;;;;10.27;9.27;;;;;;;21.07;60.44;100407.66;5010677;28;20104;-54
2021/07/24 09:15:14;;;;;;;10.05;8.32;;;;;;;21.08;60.38;100398.69;5010641;28;20037;-54
2021/07/24 09:17:39;;;;;;;10.75;9.63;;;;;;;21.07;60.40;100402.28;4994007;28;20025;-54
2021/07/24 09:20:05;;;;;;;10.75;9.68;;;;;;;21.09;60.48;100400.41;4996675;28;20036;-55
2021/07/24 09:22:47;;;;;;;13.40;11.10;;;;;;;21.09;60.51;100405.75;4996826;28;20045;-53
2021/07/24 09:25:27;;;;;;;11.52;10.00;;;;;;;21.10;60.50;100395.88;5010780;28;20029;-53
2021/07/24 09:27:54;;;;;;;11.27;10.07;;;;;;;21.08;60.59;100393.31;5012058;28;20068;-53
2021/07/24 09:30:35;;;;;;;11.20;10.07;;;;;;;21.08;60.75;100396.00;5010788;28;20507;-54
2021/07/24 09:33:11;;;;;;;12.82;10.32;;;;;;;21.08;60.75;100381.72;5013520;28;20092;-53
2021/07/24 09:35:53;;;;;;;11.45;9.65;;;;;;;21.10;60.78;100390.50;4995844;28;20111;-55
2021/07/24 09:38:34;;;;;;;10.85;9.75;;;;;;;21.11;60.72;100387.75;5013481;28;20022;-55
2021/07/24 09:41:04;;;;;;;11.98;10.77;;;;;;;21.12;60.64;100389.50;5022394;28;20124;-53
2021/07/24 09:44:19;;;;;;;12.30;11.05;;;;;;;21.11;60.67;100386.91;5018866;28;20072;-57
2021/07/24 09:46:54;;;;;;;13.18;11.68;;;;;;;21.15;60.61;100380.41;4994047;28;20412;-55
2021/07/24 09:49:19;;;;;;;10.98;9.98;;;;;;;21.14;60.56;100379.53;4993316;28;20023;-53
2021/07/24 09:51:46;;;;;;;12.70;11.40;;;;;;;21.15;60.59;100370.53;4994592;28;20029;-54
2021/07/24 09:54:27;;;;;;;12.32;11.13;;;;;;;21.15;60.63;100373.22;4995559;28;20022;-53
2021/07/24 09:56:56;;;;;;;11.52;10.38;;;;;;;21.14;60.65;100371.50;5012610;28;20029;-54
2021/07/24 09:59:29;;;;;;;13.82;11.13;;;;;;;21.17;60.63;100374.97;5016312;28;20029;-55
2021/07/24 10:01:58;;;;;;;13.02;11.63;;;;;;;21.15;60.87;100367.00;5016498;28;20029;-53
2021/07/24 10:04:42;;;;;;;12.25;10.82;;;;;;;21.15;60.96;100365.16;5015952;28;20037;-53
2021/07/24 10:07:09;;;;;;;11.95;10.75;;;;;;;21.16;60.87;100349.94;5017674;28;20030;-53
2021/07/24 10:09:40;;;;;;;13.13;11.82;;;;;;;21.19;60.92;100349.78;5026552;28;20041;-55
2021/07/24 10:12:09;;;;;;;12.73;11.43;;;;;;;21.21;60.63;100349.69;5035164;28;20060;-53
2021/07/24 10:14:35;;;;;;;13.25;11.75;;;;;;;21.23;60.59;100348.63;5020199;28;20030;-57
2021/07/24 10:17:01;;;;;;;13.75;12.35;;;;;;;21.25;60.39;100351.22;4983998;28;20048;-53
2021/07/24 10:19:28;;;;;;;14.70;12.32;;;;;;;21.26;60.60;100347.59;5017943;28;20025;-56
2021/07/24 10:21:56;;;;;;;14.00;12.50;;;;;;;21.28;60.67;100345.69;4995541;28;20048;-53
2021/07/24 10:24:22;;;;;;;13.75;11.98;;;;;;;21.27;60.65;100341.25;4999251;28;20049;-54
2021/07/24 10:26:51;;;;;;;14.30;12.80;;;;;;;21.28;60.54;100345.69;4996990;28;20026;-53
2021/07/24 10:29:29;;;;;;;14.15;12.65;;;;;;;21.30;60.68;100333.03;5001131;28;20464;-53
2021/07/24 10:32:16;;;;;;;12.73;11.43;;;;;;;21.34;60.58;100339.09;4999436;28;20093;-54
2021/07/24 10:34:50;;;;;;;13.80;12.00;;;;;;;21.32;60.71;100330.25;4999317;28;20491;-57
2021/07/24 10:37:35;;;;;;;14.02;12.55;;;;;;;21.33;60.62;100335.53;4998605;28;20087;-54
2021/07/24 10:40:24;;;;;;;13.82;12.32;;;;;;;21.36;60.54;100327.31;4998508;28;20156;-54
2021/07/24 10:42:51;;;;;;;13.98;12.45;;;;;;;21.35;60.69;100324.72;5018296;28;20033;-54
2021/07/24 10:45:31;;;;;;;13.70;12.35;;;;;;;21.37;60.67;100312.94;5015199;28;20095;-54
2021/07/24 10:48:26;;;;;;;14.20;12.48;;;;;;;21.37;60.74;100329.03;5016487;28;20483;-54
2021/07/24 10:50:57;;;;;;;13.80;12.40;;;;;;;21.36;60.82;100316.59;5016657;28;20032;-53
2021/07/24 10:53:29;;;;;;;13.90;12.50;;;;;;;21.38;60.78;100313.81;4997714;28;20037;-54
2021/07/24 10:55:56;;;;;;;13.75;12.27;;;;;;;21.39;60.73;100316.41;5012398;28;20026;-53
2021/07/24 10:58:26;;;;;;;14.10;12.63;;;;;;;21.39;60.74;100308.34;4978648;28;20026;-55
2021/07/24 11:00:56;;;;;;;14.25;12.95;;;;;;;21.43;60.68;100305.47;4993863;28;20045;-58
2021/07/24 11:03:29;;;;;;;16.10;13.32;;;;;;;21.41;60.99;100303.75;4995079;28;20037;-53
2021/07/24 11:05:55;;;;;;;15.95;13.57;;;;;;;21.43;60.73;100306.34;4994653;28;20040;-54
2021/07/24 11:09:00;;;;;;;14.45;12.95;;;;;;;21.46;61.13;100308.84;5012663;28;20033;-54
2021/07/24 11:11:45;;;;;;;14.60;12.77;;;;;;;21.47;60.91;100307.03;5015234;28;20032;-54
2021/07/24 11:14:33;;;;;;;13.52;12.07;;;;;;;21.51;60.80;100305.88;5009939;28;20498;-53
2021/07/24 11:17:05;;;;;;;15.93;14.32;;;;;;;21.50;61.06;100301.44;4983042;28;20041;-54
2021/07/24 11:19:43;;;;;;;15.07;13.38;;;;;;;21.52;60.97;100304.91;5009627;28;20227;-53
2021/07/24 11:22:18;;;;;;;14.68;13.25;;;;;;;21.53;60.99;100298.59;5011307;28;20025;-54
2021/07/24 11:24:49;;;;;;;14.90;13.15;;;;;;;21.56;60.85;100295.72;4992857;28;20087;-54
2021/07/24 11:27:15;;;;;;;14.65;13.18;;;;;;;21.55;61.07;100288.63;5007998;28;20038;-55
2021/07/24 11:29:40;;;;;;;15.77;13.90;;;;;;;21.57;60.86;100291.22;4992449;28;20033;-53
2021/07/24 11:32:07;;;;;;;15.18;13.68;;;;;;;21.59;60.98;100295.53;5012049;28;20080;-55
2021/07/24 11:34:44;;;;;;;16.98;14.20;;;;;;;21.61;61.01;100292.75;5012073;28;20028;-53
2021/07/24 11:37:09;;;;;;;17.00;15.20;;;;;;;21.62;61.06;100289.13;4993981;28;20030;-53